createdAt,value
2022-10-17T00:02:15.028Z,9.82
2022-10-17T00:05:16.484Z,10.00
2022-10-17T00:08:18.446Z,8.45
2022-10-17T00:11:22.596Z,12.63
2022-10-17T00:14:23.969Z,12.10
2022-10-17T00:17:25.789Z,11.05
2022-10-17T00:20:27.650Z,11.13
2022-10-17T00:23:29.103Z,11.05
2022-10-17T00:26:30.447Z,9.15
2022-10-17T00:29:31.842Z,11.30
2022-10-17T00:32:33.343Z,7.15
2022-10-17T00:35:34.691Z,9.77
2022-10-17T00:38:37.036Z,10.55
2022-10-17T00:41:38.439Z,8.18
2022-10-17T00:44:40.200Z,8.73
2022-10-17T00:47:45.444Z,10.65
2022-10-17T00:50:48.740Z,8.43
2022-10-17T00:56:52.500Z,10.23
2022-10-17T00:59:57.251Z,13.35
2022-10-17T01:02:58.701Z,9.13
2022-10-17T01:06:00.049Z,9.70
2022-10-17T01:09:01.512Z,8.95
2022-10-17T01:12:15.137Z,11.38
2022-10-17T01:19:02.777Z,11.77
2022-10-17T01:22:22.647Z,8.30
2022-10-17T01:25:41.317Z,10.10
2022-10-17T01:29:16.945Z,9.00
2022-10-17T01:32:37.150Z,9.88
2022-10-17T01:35:52.563Z,7.38
2022-10-17T01:39:02.895Z,10.95
2022-10-17T01:42:22.078Z,6.60
2022-10-17T01:45:32.199Z,8.32
2022-10-17T01:48:37.498Z,9.60
2022-10-17T01:51:46.419Z,8.40
2022-10-17T01:54:58.110Z,5.40
2022-10-17T01:58:32.998Z,6.70
2022-10-17T02:01:37.504Z,7.28
2022-10-17T02:04:40.414Z,7.78
2022-10-17T02:07:41.954Z,7.60
2022-10-17T02:11:00.739Z,6.53
2022-10-17T02:14:09.386Z,9.10
2022-10-17T02:17:43.439Z,7.72
2022-10-17T02:20:57.624Z,5.88
2022-10-17T02:24:10.705Z,8.75
2022-10-17T02:27:16.935Z,6.93
2022-10-17T02:30:41.996Z,8.77
2022-10-17T02:33:58.355Z,6.72
2022-10-17T02:37:02.799Z,8.95
2022-10-17T02:40:06.468Z,6.13
2022-10-17T02:43:08.253Z,8.55
2022-10-17T02:46:10.258Z,8.70
2022-10-17T02:49:21.032Z,7.80
2022-10-17T02:52:33.856Z,6.75
2022-10-17T02:55:43.584Z,7.00
2022-10-17T02:58:50.613Z,8.52
2022-10-17T03:01:52.489Z,6.72
2022-10-17T03:04:53.845Z,6.00
2022-10-17T03:07:56.299Z,6.35
2022-10-17T03:10:59.440Z,8.55
2022-10-17T03:14:02.533Z,7.97
2022-10-17T03:17:04.111Z,5.90
2022-10-17T03:20:06.981Z,6.45
2022-10-17T03:23:08.613Z,7.20
2022-10-17T03:26:10.662Z,6.00
2022-10-17T03:29:13.699Z,5.43
2022-10-17T03:32:15.571Z,8.00
2022-10-17T03:35:17.107Z,4.82
2022-10-17T03:38:22.515Z,7.18
2022-10-17T03:41:23.942Z,6.93
2022-10-17T03:44:25.439Z,5.47
2022-10-17T03:47:28.841Z,6.43
2022-10-17T03:50:31.085Z,4.80
2022-10-17T03:53:34.030Z,6.05
2022-10-17T03:56:35.452Z,5.82
2022-10-17T03:59:39.656Z,5.20
2022-10-17T04:02:47.145Z,5.55
2022-10-17T04:05:53.022Z,5.22
2022-10-17T04:08:54.579Z,8.13
2022-10-17T04:12:00.771Z,6.43
2022-10-17T04:15:04.795Z,6.00
2022-10-17T04:18:06.363Z,4.80
2022-10-17T04:21:11.224Z,5.00
2022-10-17T04:24:13.376Z,4.47
2022-10-17T04:27:22.113Z,4.88
2022-10-17T04:30:23.489Z,6.28
2022-10-17T04:33:25.604Z,9.48
2022-10-17T04:36:27.121Z,7.05
2022-10-17T04:39:29.425Z,9.93
2022-10-17T04:42:32.567Z,7.15
2022-10-17T04:45:34.177Z,7.22
2022-10-17T04:48:39.119Z,6.20
2022-10-17T04:51:40.682Z,7.87
2022-10-17T04:54:51.473Z,5.45
2022-10-17T04:57:52.865Z,6.05
2022-10-17T05:00:56.395Z,5.80
2022-10-17T05:04:02.281Z,5.03
2022-10-17T05:07:04.068Z,6.45
2022-10-17T05:10:23.878Z,4.80
2022-10-17T05:13:27.108Z,4.80
2022-10-17T05:16:29.401Z,6.38
2022-10-17T05:19:30.746Z,5.75
2022-10-17T05:22:32.659Z,5.10
2022-10-17T05:25:34.615Z,5.55
2022-10-17T05:28:36.744Z,5.47
2022-10-17T05:31:39.086Z,7.10
2022-10-17T05:34:41.959Z,6.65
2022-10-17T05:37:43.359Z,4.88
2022-10-17T05:40:44.886Z,5.88
2022-10-17T05:43:46.969Z,5.65
2022-10-17T05:46:55.571Z,6.03
2022-10-17T05:49:57.171Z,6.28
2022-10-17T05:53:05.437Z,10.07
2022-10-17T05:56:13.063Z,8.15
2022-10-17T05:59:14.480Z,7.22
2022-10-17T06:02:25.208Z,6.15
2022-10-17T06:05:26.840Z,6.60
2022-10-17T06:08:28.453Z,6.07
2022-10-17T06:11:29.977Z,8.27
2022-10-17T06:14:31.404Z,7.38
2022-10-17T06:17:36.316Z,6.18
2022-10-17T06:20:38.127Z,7.78
2022-10-17T06:23:40.699Z,6.15
2022-10-17T06:26:48.721Z,6.00
2022-10-17T06:29:51.468Z,6.05
2022-10-17T06:32:53.715Z,6.75
2022-10-17T06:35:56.625Z,5.65
2022-10-17T06:38:59.675Z,6.07
2022-10-17T06:42:27.013Z,6.95
2022-10-17T06:45:40.107Z,6.25
2022-10-17T06:49:01.736Z,6.07
2022-10-17T06:52:23.379Z,5.80
2022-10-17T06:55:51.841Z,6.60
2022-10-17T06:59:05.507Z,5.35
2022-10-17T07:02:11.383Z,5.30
2022-10-17T07:05:13.223Z,5.37
2022-10-17T07:08:14.862Z,5.85
2022-10-17T07:11:19.385Z,5.40
2022-10-17T07:14:23.418Z,5.05
2022-10-17T07:17:25.365Z,5.88
2022-10-17T07:20:27.425Z,7.15
2022-10-17T07:23:28.854Z,4.70
2022-10-17T07:26:30.265Z,5.57
2022-10-17T07:29:31.877Z,4.70
2022-10-17T07:32:43.843Z,7.45
2022-10-17T07:35:45.174Z,5.87
2022-10-17T07:38:46.553Z,5.55
2022-10-17T07:41:49.338Z,8.00
2022-10-17T07:44:50.858Z,5.50
2022-10-17T07:47:55.990Z,5.05
2022-10-17T07:50:57.606Z,5.32
2022-10-17T07:53:58.995Z,5.30
2022-10-17T07:57:00.514Z,6.05
2022-10-17T08:00:01.967Z,5.32
2022-10-17T08:03:04.327Z,4.68
2022-10-17T08:06:05.707Z,4.93
2022-10-17T08:09:07.067Z,5.25
2022-10-17T08:12:08.505Z,3.70
2022-10-17T08:15:10.947Z,5.47
2022-10-17T08:18:12.296Z,4.00
2022-10-17T08:21:13.663Z,5.43
2022-10-17T08:24:15.031Z,4.82
2022-10-17T08:27:16.541Z,5.70
2022-10-17T08:30:18.217Z,7.30
2022-10-17T08:33:19.728Z,5.35
2022-10-17T08:36:21.092Z,5.60
2022-10-17T08:39:22.496Z,5.88
2022-10-17T08:42:51.636Z,5.75
2022-10-17T08:46:00.148Z,3.80
2022-10-17T08:49:06.482Z,4.72
2022-10-17T08:52:21.748Z,7.13
2022-10-17T08:55:46.333Z,5.72
2022-10-17T08:58:47.817Z,4.38
2022-10-17T09:02:23.509Z,7.18
2022-10-17T09:05:39.770Z,7.53
2022-10-17T09:08:52.245Z,8.15
2022-10-17T09:12:16.602Z,3.77
2022-10-17T09:15:37.425Z,5.95
2022-10-17T09:18:47.977Z,6.22
2022-10-17T09:21:58.119Z,4.53
2022-10-17T09:25:04.768Z,3.83
2022-10-17T09:28:31.267Z,8.25
2022-10-17T09:31:40.862Z,5.25
2022-10-17T09:34:42.221Z,5.00
2022-10-17T09:37:44.032Z,4.07
2022-10-17T09:40:57.129Z,10.77
2022-10-17T09:44:09.082Z,6.82
2022-10-17T09:47:20.942Z,6.53
2022-10-17T09:50:28.644Z,7.97
2022-10-17T09:53:36.484Z,5.05
2022-10-17T09:56:58.335Z,6.57
2022-10-17T10:00:02.312Z,6.18
2022-10-17T10:03:12.784Z,4.32
2022-10-17T10:06:20.895Z,4.63
2022-10-17T10:09:31.536Z,4.38
2022-10-17T10:12:39.073Z,4.68
2022-10-17T10:15:45.606Z,5.25
2022-10-17T10:18:50.128Z,3.63
2022-10-17T10:21:59.573Z,3.22
2022-10-17T10:25:17.074Z,4.63
2022-10-17T10:28:18.627Z,4.35
2022-10-17T10:31:28.217Z,4.57
2022-10-17T10:34:30.616Z,5.05
2022-10-17T10:37:43.053Z,4.70
2022-10-17T10:40:47.974Z,3.87
2022-10-17T10:43:51.953Z,4.28
2022-10-17T10:47:08.465Z,5.63
2022-10-17T10:50:28.722Z,4.05
2022-10-17T10:53:51.503Z,5.82
2022-10-17T10:56:56.438Z,4.80
2022-10-17T11:00:06.219Z,3.78
2022-10-17T11:03:21.106Z,5.10
2022-10-17T11:06:34.189Z,4.93
2022-10-17T11:09:44.822Z,4.75
2022-10-17T11:12:53.128Z,6.35
2022-10-17T11:16:16.811Z,4.60
2022-10-17T11:19:31.310Z,6.95
2022-10-17T11:22:55.650Z,6.60
2022-10-17T11:26:02.558Z,5.72
2022-10-17T11:29:05.427Z,4.50
2022-10-17T11:35:23.683Z,6.65
2022-10-17T11:38:56.776Z,13.90
2022-10-17T11:42:05.327Z,5.00
2022-10-17T11:45:14.025Z,4.78
2022-10-17T11:48:24.823Z,4.68
2022-10-17T11:54:54.712Z,9.13
2022-10-17T12:01:38.713Z,5.75
2022-10-17T12:04:56.827Z,5.00
2022-10-17T12:08:21.176Z,8.02
2022-10-17T12:11:39.041Z,8.63
2022-10-17T12:14:41.689Z,8.38
2022-10-17T12:17:54.653Z,6.07
2022-10-17T12:20:57.660Z,5.75
2022-10-17T12:27:31.643Z,6.97
2022-10-17T12:30:34.166Z,6.97
2022-10-17T12:33:47.990Z,6.80
2022-10-17T12:36:49.349Z,7.75
2022-10-17T12:39:50.780Z,7.18
2022-10-17T12:42:52.225Z,10.40
2022-10-17T12:46:04.973Z,8.25
2022-10-17T12:49:38.651Z,9.65
2022-10-17T12:55:41.442Z,10.90
2022-10-17T12:58:46.419Z,13.80
2022-10-17T13:01:52.228Z,12.15
2022-10-17T13:05:04.983Z,11.73
2022-10-17T13:08:14.659Z,16.15
2022-10-17T13:11:16.268Z,12.48
2022-10-17T13:14:21.151Z,12.07
2022-10-17T13:17:26.499Z,11.30
2022-10-17T13:20:31.770Z,12.32
2022-10-17T13:23:37.781Z,14.07
2022-10-17T13:26:45.743Z,12.43
2022-10-17T13:29:47.163Z,14.65
2022-10-17T13:32:48.963Z,11.23
2022-10-17T13:36:05.693Z,11.20
2022-10-17T13:39:12.342Z,11.60
2022-10-17T13:42:28.639Z,12.75
2022-10-17T13:45:36.708Z,12.63
2022-10-17T13:48:38.336Z,11.43
2022-10-17T13:51:44.504Z,13.88
2022-10-17T13:54:51.468Z,13.00
2022-10-17T13:57:52.873Z,12.18
2022-10-17T14:00:54.586Z,12.80
2022-10-17T14:04:07.799Z,12.35
2022-10-17T14:07:34.333Z,11.23
2022-10-17T14:10:44.196Z,12.55
2022-10-17T14:13:49.990Z,13.50
2022-10-17T14:16:52.175Z,14.35
2022-10-17T14:20:30.872Z,18.90
2022-10-17T14:23:40.349Z,15.10
2022-10-17T14:26:54.234Z,13.07
2022-10-17T14:29:58.557Z,19.38
2022-10-17T14:33:02.038Z,18.50
2022-10-17T14:36:03.917Z,19.15
2022-10-17T14:39:13.370Z,17.35
2022-10-17T14:42:20.869Z,19.00
2022-10-17T14:45:24.808Z,21.60
2022-10-17T14:48:29.047Z,22.05
2022-10-17T14:51:39.998Z,20.08
2022-10-17T14:54:52.390Z,15.88
2022-10-17T14:57:53.964Z,18.25
2022-10-17T15:00:56.515Z,16.15
2022-10-17T15:03:57.911Z,17.42
2022-10-17T15:06:59.271Z,16.70
2022-10-17T15:10:00.622Z,15.68
2022-10-17T15:13:27.076Z,15.65
2022-10-17T15:16:26.833Z,17.65
2022-10-17T15:19:28.211Z,17.08
2022-10-17T15:22:29.822Z,18.38
2022-10-17T15:25:32.112Z,18.73
2022-10-17T15:28:33.666Z,17.67
2022-10-17T15:31:35.102Z,17.35
2022-10-17T15:34:36.520Z,17.00
2022-10-17T15:37:37.912Z,16.45
2022-10-17T15:40:41.303Z,16.42
2022-10-17T15:43:42.657Z,15.65
2022-10-17T15:46:44.136Z,14.43
2022-10-17T15:49:45.480Z,13.68
2022-10-17T15:52:47.061Z,12.15
2022-10-17T15:55:48.444Z,11.90
2022-10-17T15:58:50.634Z,11.27
2022-10-17T16:01:52.209Z,10.23
2022-10-17T16:04:53.877Z,16.52
2022-10-17T16:07:55.920Z,11.23
2022-10-17T16:10:57.265Z,12.73
2022-10-17T16:14:04.943Z,10.95
2022-10-17T16:17:06.421Z,13.10
2022-10-17T16:20:09.609Z,12.32
2022-10-17T16:23:13.210Z,13.40
2022-10-17T16:26:14.549Z,12.85
2022-10-17T16:29:16.293Z,14.52
2022-10-17T16:32:17.683Z,14.48
2022-10-17T16:35:30.677Z,16.80
2022-10-17T16:38:34.746Z,16.70
2022-10-17T16:41:38.073Z,16.40
2022-10-17T16:44:39.414Z,14.35
2022-10-17T16:47:40.762Z,14.52
2022-10-17T16:50:42.114Z,13.38
2022-10-17T16:53:43.849Z,14.00
2022-10-17T16:56:45.182Z,14.02
2022-10-17T16:59:46.519Z,14.52
2022-10-17T17:02:48.495Z,13.07
2022-10-17T17:05:50.815Z,12.43
2022-10-17T17:08:52.755Z,13.87
2022-10-17T17:11:54.084Z,12.25
2022-10-17T17:14:55.432Z,13.18
2022-10-17T17:17:57.998Z,14.23
2022-10-17T17:21:02.156Z,14.93
2022-10-17T17:24:04.352Z,12.43
2022-10-17T17:27:07.817Z,12.93
2022-10-17T17:30:11.573Z,13.75
2022-10-17T17:33:12.977Z,13.43
2022-10-17T17:36:16.877Z,14.63
2022-10-17T17:39:18.204Z,16.48
2022-10-17T17:42:19.569Z,15.80
2022-10-17T17:45:20.900Z,17.13
2022-10-17T17:48:22.458Z,19.00
2022-10-17T17:51:28.332Z,19.80
2022-10-17T17:54:30.485Z,19.17
2022-10-17T17:57:31.835Z,23.35
2022-10-17T18:00:33.839Z,21.40
2022-10-17T18:03:35.222Z,19.15
2022-10-17T18:06:37.965Z,21.20
2022-10-17T18:09:39.314Z,22.15
2022-10-17T18:12:41.418Z,23.85
2022-10-17T18:15:44.274Z,24.15
2022-10-17T18:18:45.644Z,27.27
2022-10-17T18:21:47.023Z,24.35
2022-10-17T18:24:48.834Z,24.00
2022-10-17T18:27:50.156Z,16.92
2022-10-17T18:30:51.477Z,13.13
2022-10-17T18:33:57.925Z,9.02
2022-10-17T18:36:59.271Z,4.50
2022-10-17T18:40:00.611Z,4.80
2022-10-17T18:43:01.968Z,4.50
2022-10-17T18:46:07.706Z,5.10
2022-10-17T18:49:15.232Z,5.20
2022-10-17T18:52:16.592Z,4.50
2022-10-17T18:55:18.466Z,3.42
2022-10-17T18:58:20.453Z,4.60
2022-10-17T19:01:24.834Z,3.60
2022-10-17T19:04:26.629Z,5.85
2022-10-17T19:07:28.333Z,3.83
2022-10-17T19:10:32.512Z,5.72
2022-10-17T19:13:34.901Z,4.82
2022-10-17T19:16:37.211Z,6.97
2022-10-17T19:19:38.740Z,6.67
2022-10-17T19:22:40.140Z,5.63
2022-10-17T19:25:41.609Z,4.80
2022-10-17T19:28:43.116Z,4.97
2022-10-17T19:31:45.442Z,5.55
2022-10-17T19:34:46.859Z,5.60
2022-10-17T19:37:48.195Z,4.18
2022-10-17T19:40:49.877Z,4.43
2022-10-17T19:43:51.597Z,3.95
2022-10-17T19:46:52.968Z,3.72
2022-10-17T19:49:54.426Z,4.45
2022-10-17T19:52:55.824Z,3.75
2022-10-17T19:55:58.307Z,4.88
2022-10-17T19:58:59.652Z,4.78
2022-10-17T20:02:01.076Z,4.88
2022-10-17T20:05:18.911Z,4.68
2022-10-17T20:08:21.270Z,5.28
2022-10-17T20:11:27.928Z,4.75
2022-10-17T20:14:29.272Z,7.47
2022-10-17T20:17:30.648Z,5.32
2022-10-17T20:20:34.702Z,5.20
2022-10-17T20:23:36.477Z,4.78
2022-10-17T20:26:39.403Z,5.47
2022-10-17T20:29:41.093Z,4.57
2022-10-17T20:32:42.558Z,4.82
2022-10-17T20:38:46.365Z,4.60
2022-10-17T20:41:47.735Z,4.45
2022-10-17T20:44:49.079Z,5.05
2022-10-17T20:47:52.476Z,4.07
2022-10-17T20:50:54.455Z,4.60
2022-10-17T20:57:01.075Z,5.47
2022-10-17T21:00:05.823Z,5.28
2022-10-17T21:03:07.831Z,5.25
2022-10-17T21:06:09.694Z,6.47
2022-10-17T21:09:11.018Z,4.85
2022-10-17T21:12:18.070Z,5.20
2022-10-17T21:15:27.663Z,8.02
2022-10-17T21:18:28.982Z,6.05
2022-10-17T21:21:33.003Z,7.53
2022-10-17T21:24:34.492Z,8.30
2022-10-17T21:27:35.835Z,10.45
2022-10-17T21:30:37.200Z,10.00
2022-10-17T21:33:39.635Z,8.63
2022-10-17T21:36:41.335Z,12.10
2022-10-17T21:39:42.684Z,9.80
2022-10-17T21:42:44.020Z,14.20
2022-10-17T21:45:45.353Z,12.38
2022-10-17T21:48:48.205Z,12.07
2022-10-17T21:51:50.562Z,14.10
2022-10-17T21:54:51.884Z,12.90
2022-10-17T21:57:53.216Z,12.35
2022-10-17T22:01:08.228Z,15.50
2022-10-17T22:04:15.349Z,10.75
2022-10-17T22:07:16.750Z,14.32
2022-10-17T22:10:18.097Z,15.15
2022-10-17T22:13:19.489Z,16.02
2022-10-17T22:16:21.672Z,14.93
2022-10-17T22:19:25.108Z,14.90
2022-10-17T22:22:26.443Z,12.70
2022-10-17T22:25:27.805Z,14.45
2022-10-17T22:28:29.233Z,16.92
2022-10-17T22:31:30.857Z,14.38
2022-10-17T22:34:32.773Z,15.15
2022-10-17T22:37:34.151Z,13.68
2022-10-17T22:40:35.562Z,15.02
2022-10-17T22:43:37.135Z,13.40
2022-10-17T22:46:39.582Z,17.88
2022-10-17T22:49:43.222Z,18.30
2022-10-17T22:52:44.586Z,18.08
2022-10-17T22:56:03.882Z,16.33
2022-10-17T22:59:05.235Z,18.17
2022-10-17T23:02:06.666Z,16.15
2022-10-17T23:05:08.439Z,17.88
2022-10-17T23:08:10.259Z,17.92
2022-10-17T23:11:11.702Z,19.80
2022-10-17T23:14:13.042Z,19.38
2022-10-17T23:17:15.065Z,20.48
2022-10-17T23:20:16.493Z,22.08
2022-10-17T23:23:18.819Z,21.08
2022-10-17T23:26:20.229Z,22.53
2022-10-17T23:29:22.511Z,19.33
2022-10-17T23:32:23.945Z,21.80
2022-10-17T23:35:25.411Z,24.38
2022-10-17T23:38:26.792Z,24.80
2022-10-17T23:41:28.354Z,25.90
2022-10-17T23:44:29.695Z,24.05
2022-10-17T23:47:31.566Z,25.48
2022-10-17T23:50:33.116Z,24.10
2022-10-17T23:53:35.292Z,24.02
2022-10-17T23:56:36.624Z,20.30
2022-10-17T23:59:37.966Z,27.77
